sensor_id;sensor_type;location;lat;lon;timestamp;P1;durP1;ratioP1;P2;durP2;ratioP2
23578;SDS011;11967;50.852;4.400;2024-03-07T00:02:08;24.83;;;15.70;;
23578;SDS011;11967;50.852;4.400;2024-03-07T00:04:37;27.05;;;17.80;;
23578;SDS011;11967;50.852;4.400;2024-03-07T00:07:03;28.75;;;17.83;;
23578;SDS011;11967;50.852;4.400;2024-03-07T00:09:32;35.78;;;20.60;;
23578;SDS011;11967;50.852;4.400;2024-03-07T00:11:58;33.33;;;21.55;;
23578;SDS011;11967;50.852;4.400;2024-03-07T00:14:24;38.58;;;22.38;;
23578;SDS011;11967;50.852;4.400;2024-03-07T00:16:52;36.22;;;22.27;;
23578;SDS011;11967;50.852;4.400;2024-03-07T00:19:21;42.97;;;23.67;;
23578;SDS011;11967;50.852;4.400;2024-03-07T00:21:50;45.60;;;25.55;;
23578;SDS011;11967;50.852;4.400;2024-03-07T00:24:17;43.63;;;25.25;;
23578;SDS011;11967;50.852;4.400;2024-03-07T00:26:42;39.90;;;24.05;;
23578;SDS011;11967;50.852;4.400;2024-03-07T00:29:08;41.00;;;24.38;;
23578;SDS011;11967;50.852;4.400;2024-03-07T00:31:33;35.67;;;22.75;;
23578;SDS011;11967;50.852;4.400;2024-03-07T00:33:59;40.25;;;24.52;;
23578;SDS011;11967;50.852;4.400;2024-03-07T00:36:25;41.65;;;24.00;;
23578;SDS011;11967;50.852;4.400;2024-03-07T00:38:51;41.83;;;24.88;;
23578;SDS011;11967;50.852;4.400;2024-03-07T00:41:17;44.83;;;25.58;;
23578;SDS011;11967;50.852;4.400;2024-03-07T00:43:42;43.63;;;25.27;;
23578;SDS011;11967;50.852;4.400;2024-03-07T00:46:08;48.03;;;26.70;;
23578;SDS011;11967;50.852;4.400;2024-03-07T00:48:36;43.03;;;27.17;;
23578;SDS011;11967;50.852;4.400;2024-03-07T00:51:04;47.10;;;27.55;;
23578;SDS011;11967;50.852;4.400;2024-03-07T00:53:30;48.78;;;27.77;;
23578;SDS011;11967;50.852;4.400;2024-03-07T00:55:56;47.33;;;27.30;;
23578;SDS011;11967;50.852;4.400;2024-03-07T00:58:22;53.78;;;27.95;;
23578;SDS011;11967;50.852;4.400;2024-03-07T01:00:48;47.75;;;28.83;;
23578;SDS011;11967;50.852;4.400;2024-03-07T01:03:14;42.47;;;25.83;;
23578;SDS011;11967;50.852;4.400;2024-03-07T01:05:42;44.70;;;26.73;;
23578;SDS011;11967;50.852;4.400;2024-03-07T01:08:08;48.92;;;27.48;;
23578;SDS011;11967;50.852;4.400;2024-03-07T01:10:34;44.75;;;26.58;;
23578;SDS011;11967;50.852;4.400;2024-03-07T01:13:00;45.10;;;27.58;;
23578;SDS011;11967;50.852;4.400;2024-03-07T01:15:32;46.63;;;26.30;;
23578;SDS011;11967;50.852;4.400;2024-03-07T01:17:58;47.13;;;27.67;;
23578;SDS011;11967;50.852;4.400;2024-03-07T01:20:24;45.70;;;26.45;;
23578;SDS011;11967;50.852;4.400;2024-03-07T01:22:50;47.67;;;27.45;;
23578;SDS011;11967;50.852;4.400;2024-03-07T01:25:16;48.33;;;28.25;;
23578;SDS011;11967;50.852;4.400;2024-03-07T01:27:43;48.13;;;28.85;;
23578;SDS011;11967;50.852;4.400;2024-03-07T01:30:09;49.13;;;29.05;;
23578;SDS011;11967;50.852;4.400;2024-03-07T01:32:35;47.60;;;28.75;;
23578;SDS011;11967;50.852;4.400;2024-03-07T01:35:01;50.20;;;30.25;;
23578;SDS011;11967;50.852;4.400;2024-03-07T01:37:27;52.88;;;30.58;;
23578;SDS011;11967;50.852;4.400;2024-03-07T01:39:53;54.55;;;30.58;;
23578;SDS011;11967;50.852;4.400;2024-03-07T01:42:19;52.55;;;30.95;;
23578;SDS011;11967;50.852;4.400;2024-03-07T01:44:45;50.35;;;31.02;;
23578;SDS011;11967;50.852;4.400;2024-03-07T01:47:12;52.75;;;31.13;;
23578;SDS011;11967;50.852;4.400;2024-03-07T01:49:40;58.92;;;32.03;;
23578;SDS011;11967;50.852;4.400;2024-03-07T01:52:06;55.15;;;32.35;;
23578;SDS011;11967;50.852;4.400;2024-03-07T01:54:34;56.22;;;32.38;;
23578;SDS011;11967;50.852;4.400;2024-03-07T01:57:01;56.95;;;33.38;;
23578;SDS011;11967;50.852;4.400;2024-03-07T01:59:27;59.15;;;33.53;;
23578;SDS011;11967;50.852;4.400;2024-03-07T02:01:56;54.72;;;32.92;;
23578;SDS011;11967;50.852;4.400;2024-03-07T02:04:22;59.15;;;32.80;;
23578;SDS011;11967;50.852;4.400;2024-03-07T02:06:49;60.33;;;34.00;;
23578;SDS011;11967;50.852;4.400;2024-03-07T02:09:15;57.50;;;33.97;;
23578;SDS011;11967;50.852;4.400;2024-03-07T02:11:42;57.50;;;34.65;;
23578;SDS011;11967;50.852;4.400;2024-03-07T02:14:08;60.33;;;35.53;;
23578;SDS011;11967;50.852;4.400;2024-03-07T02:16:33;60.20;;;34.78;;
23578;SDS011;11967;50.852;4.400;2024-03-07T02:18:59;60.22;;;36.83;;
23578;SDS011;11967;50.852;4.400;2024-03-07T02:21:25;63.95;;;36.80;;
23578;SDS011;11967;50.852;4.400;2024-03-07T02:23:52;61.75;;;36.88;;
23578;SDS011;11967;50.852;4.400;2024-03-07T02:26:18;61.63;;;36.58;;
23578;SDS011;11967;50.852;4.400;2024-03-07T02:28:43;65.45;;;38.45;;
23578;SDS011;11967;50.852;4.400;2024-03-07T02:31:09;67.07;;;38.88;;
23578;SDS011;11967;50.852;4.400;2024-03-07T02:33:34;68.07;;;38.72;;
23578;SDS011;11967;50.852;4.400;2024-03-07T02:36:00;69.97;;;39.80;;
23578;SDS011;11967;50.852;4.400;2024-03-07T02:38:26;68.00;;;39.42;;
23578;SDS011;11967;50.852;4.400;2024-03-07T02:40:52;66.53;;;39.25;;
23578;SDS011;11967;50.852;4.400;2024-03-07T02:43:18;69.72;;;40.30;;
23578;SDS011;11967;50.852;4.400;2024-03-07T02:45:45;73.40;;;41.75;;
23578;SDS011;11967;50.852;4.400;2024-03-07T02:48:10;70.00;;;40.20;;
23578;SDS011;11967;50.852;4.400;2024-03-07T02:50:36;73.40;;;41.35;;
23578;SDS011;11967;50.852;4.400;2024-03-07T02:53:04;69.70;;;41.20;;
23578;SDS011;11967;50.852;4.400;2024-03-07T02:55:31;66.55;;;40.47;;
23578;SDS011;11967;50.852;4.400;2024-03-07T02:57:57;71.63;;;41.42;;
23578;SDS011;11967;50.852;4.400;2024-03-07T03:00:24;72.35;;;40.33;;
23578;SDS011;11967;50.852;4.400;2024-03-07T03:02:54;72.35;;;40.80;;
23578;SDS011;11967;50.852;4.400;2024-03-07T03:05:21;71.32;;;40.63;;
23578;SDS011;11967;50.852;4.400;2024-03-07T03:07:47;69.13;;;40.38;;
23578;SDS011;11967;50.852;4.400;2024-03-07T03:10:22;71.50;;;41.50;;
23578;SDS011;11967;50.852;4.400;2024-03-07T03:12:54;73.68;;;41.47;;
23578;SDS011;11967;50.852;4.400;2024-03-07T03:15:22;71.00;;;41.03;;
23578;SDS011;11967;50.852;4.400;2024-03-07T03:17:48;77.25;;;42.22;;
23578;SDS011;11967;50.852;4.400;2024-03-07T03:20:14;74.35;;;42.83;;
23578;SDS011;11967;50.852;4.400;2024-03-07T03:22:49;79.75;;;43.35;;
23578;SDS011;11967;50.852;4.400;2024-03-07T03:25:19;80.55;;;44.35;;
23578;SDS011;11967;50.852;4.400;2024-03-07T03:27:45;78.25;;;43.33;;
23578;SDS011;11967;50.852;4.400;2024-03-07T03:30:15;76.40;;;44.20;;
23578;SDS011;11967;50.852;4.400;2024-03-07T03:32:43;80.70;;;43.83;;
23578;SDS011;11967;50.852;4.400;2024-03-07T03:35:10;77.43;;;43.75;;
23578;SDS011;11967;50.852;4.400;2024-03-07T03:37:47;74.93;;;43.78;;
23578;SDS011;11967;50.852;4.400;2024-03-07T03:40:12;79.90;;;44.92;;
23578;SDS011;11967;50.852;4.400;2024-03-07T03:42:39;77.22;;;44.25;;
23578;SDS011;11967;50.852;4.400;2024-03-07T03:45:05;76.40;;;44.42;;
23578;SDS011;11967;50.852;4.400;2024-03-07T03:47:36;72.50;;;43.53;;
23578;SDS011;11967;50.852;4.400;2024-03-07T03:50:05;74.47;;;43.35;;
23578;SDS011;11967;50.852;4.400;2024-03-07T03:52:32;72.10;;;43.38;;
23578;SDS011;11967;50.852;4.400;2024-03-07T03:54:58;73.85;;;43.70;;
23578;SDS011;11967;50.852;4.400;2024-03-07T03:57:27;80.63;;;44.30;;
23578;SDS011;11967;50.852;4.400;2024-03-07T03:59:54;78.15;;;44.75;;
23578;SDS011;11967;50.852;4.400;2024-03-07T04:02:21;74.80;;;43.25;;
23578;SDS011;11967;50.852;4.400;2024-03-07T04:04:47;76.70;;;44.22;;
23578;SDS011;11967;50.852;4.400;2024-03-07T04:07:13;76.90;;;44.58;;
23578;SDS011;11967;50.852;4.400;2024-03-07T04:09:41;75.43;;;43.78;;
23578;SDS011;11967;50.852;4.400;2024-03-07T04:12:08;78.57;;;44.25;;
23578;SDS011;11967;50.852;4.400;2024-03-07T04:14:36;76.75;;;43.38;;
23578;SDS011;11967;50.852;4.400;2024-03-07T04:17:06;80.18;;;44.90;;
23578;SDS011;11967;50.852;4.400;2024-03-07T04:19:39;79.30;;;44.22;;
23578;SDS011;11967;50.852;4.400;2024-03-07T04:22:05;74.22;;;44.72;;
23578;SDS011;11967;50.852;4.400;2024-03-07T04:24:31;75.82;;;44.10;;
23578;SDS011;11967;50.852;4.400;2024-03-07T04:26:59;77.55;;;44.60;;
23578;SDS011;11967;50.852;4.400;2024-03-07T04:29:26;79.82;;;45.08;;
23578;SDS011;11967;50.852;4.400;2024-03-07T04:31:53;80.50;;;44.90;;
23578;SDS011;11967;50.852;4.400;2024-03-07T04:34:22;74.95;;;43.33;;
23578;SDS011;11967;50.852;4.400;2024-03-07T04:36:48;78.82;;;44.30;;
23578;SDS011;11967;50.852;4.400;2024-03-07T04:39:14;74.30;;;43.38;;
23578;SDS011;11967;50.852;4.400;2024-03-07T04:41:57;83.47;;;46.88;;
23578;SDS011;11967;50.852;4.400;2024-03-07T04:44:32;81.80;;;44.88;;
23578;SDS011;11967;50.852;4.400;2024-03-07T04:47:00;77.57;;;44.53;;
23578;SDS011;11967;50.852;4.400;2024-03-07T04:49:27;75.38;;;44.85;;
23578;SDS011;11967;50.852;4.400;2024-03-07T04:51:56;82.60;;;45.05;;
23578;SDS011;11967;50.852;4.400;2024-03-07T04:54:23;75.03;;;44.53;;
23578;SDS011;11967;50.852;4.400;2024-03-07T04:56:50;83.50;;;45.65;;
23578;SDS011;11967;50.852;4.400;2024-03-07T04:59:18;78.53;;;43.90;;
23578;SDS011;11967;50.852;4.400;2024-03-07T05:01:45;82.13;;;45.30;;
23578;SDS011;11967;50.852;4.400;2024-03-07T05:04:11;80.75;;;44.20;;
23578;SDS011;11967;50.852;4.400;2024-03-07T05:06:38;81.32;;;46.13;;
23578;SDS011;11967;50.852;4.400;2024-03-07T05:09:05;79.47;;;44.88;;
23578;SDS011;11967;50.852;4.400;2024-03-07T05:11:33;89.45;;;47.58;;
23578;SDS011;11967;50.852;4.400;2024-03-07T05:13:59;92.65;;;47.50;;
23578;SDS011;11967;50.852;4.400;2024-03-07T05:16:26;85.53;;;46.35;;
23578;SDS011;11967;50.852;4.400;2024-03-07T05:18:52;93.57;;;48.42;;
23578;SDS011;11967;50.852;4.400;2024-03-07T05:21:19;98.55;;;49.72;;
23578;SDS011;11967;50.852;4.400;2024-03-07T05:24:05;102.18;;;49.85;;
23578;SDS011;11967;50.852;4.400;2024-03-07T05:26:32;98.20;;;50.20;;
23578;SDS011;11967;50.852;4.400;2024-03-07T05:29:02;100.25;;;48.97;;
23578;SDS011;11967;50.852;4.400;2024-03-07T05:31:36;109.75;;;52.20;;
23578;SDS011;11967;50.852;4.400;2024-03-07T05:34:03;110.72;;;52.78;;
23578;SDS011;11967;50.852;4.400;2024-03-07T05:36:33;106.78;;;51.30;;
23578;SDS011;11967;50.852;4.400;2024-03-07T05:39:00;103.05;;;50.70;;
23578;SDS011;11967;50.852;4.400;2024-03-07T05:41:28;109.85;;;51.70;;
23578;SDS011;11967;50.852;4.400;2024-03-07T05:43:55;112.75;;;52.22;;
23578;SDS011;11967;50.852;4.400;2024-03-07T05:46:21;110.07;;;53.20;;
23578;SDS011;11967;50.852;4.400;2024-03-07T05:48:49;109.38;;;52.28;;
23578;SDS011;11967;50.852;4.400;2024-03-07T05:51:18;108.72;;;52.72;;
23578;SDS011;11967;50.852;4.400;2024-03-07T05:53:44;106.07;;;50.40;;
23578;SDS011;11967;50.852;4.400;2024-03-07T05:56:09;107.93;;;51.70;;
23578;SDS011;11967;50.852;4.400;2024-03-07T05:58:35;103.78;;;50.90;;
23578;SDS011;11967;50.852;4.400;2024-03-07T06:01:01;104.20;;;50.67;;
23578;SDS011;11967;50.852;4.400;2024-03-07T06:03:26;103.38;;;51.67;;
23578;SDS011;11967;50.852;4.400;2024-03-07T06:05:52;103.45;;;49.17;;
23578;SDS011;11967;50.852;4.400;2024-03-07T06:08:18;105.85;;;52.58;;
23578;SDS011;11967;50.852;4.400;2024-03-07T06:10:46;101.95;;;50.47;;
23578;SDS011;11967;50.852;4.400;2024-03-07T06:13:14;107.13;;;51.58;;
23578;SDS011;11967;50.852;4.400;2024-03-07T06:15:45;106.25;;;50.67;;
23578;SDS011;11967;50.852;4.400;2024-03-07T06:18:11;108.97;;;51.33;;
23578;SDS011;11967;50.852;4.400;2024-03-07T06:20:40;107.07;;;51.60;;
23578;SDS011;11967;50.852;4.400;2024-03-07T06:23:07;104.35;;;52.08;;
23578;SDS011;11967;50.852;4.400;2024-03-07T06:25:33;104.68;;;51.60;;
23578;SDS011;11967;50.852;4.400;2024-03-07T06:28:13;105.05;;;51.10;;
23578;SDS011;11967;50.852;4.400;2024-03-07T06:30:42;98.57;;;49.60;;
23578;SDS011;11967;50.852;4.400;2024-03-07T06:33:12;96.88;;;49.13;;
23578;SDS011;11967;50.852;4.400;2024-03-07T06:35:39;104.00;;;51.17;;
23578;SDS011;11967;50.852;4.400;2024-03-07T06:38:06;97.95;;;51.50;;
23578;SDS011;11967;50.852;4.400;2024-03-07T06:40:33;96.43;;;49.47;;
23578;SDS011;11967;50.852;4.400;2024-03-07T06:43:01;94.63;;;48.08;;
23578;SDS011;11967;50.852;4.400;2024-03-07T06:45:31;99.80;;;49.10;;
23578;SDS011;11967;50.852;4.400;2024-03-07T06:47:57;102.20;;;50.22;;
23578;SDS011;11967;50.852;4.400;2024-03-07T06:50:28;94.85;;;47.45;;
23578;SDS011;11967;50.852;4.400;2024-03-07T06:52:54;94.15;;;48.80;;
23578;SDS011;11967;50.852;4.400;2024-03-07T06:55:21;103.05;;;49.95;;
23578;SDS011;11967;50.852;4.400;2024-03-07T06:57:46;96.65;;;48.72;;
23578;SDS011;11967;50.852;4.400;2024-03-07T07:00:12;98.18;;;49.63;;
23578;SDS011;11967;50.852;4.400;2024-03-07T07:02:45;96.70;;;48.45;;
23578;SDS011;11967;50.852;4.400;2024-03-07T07:07:46;98.20;;;48.78;;
23578;SDS011;11967;50.852;4.400;2024-03-07T07:10:13;96.60;;;47.55;;
23578;SDS011;11967;50.852;4.400;2024-03-07T07:12:48;99.00;;;48.15;;
23578;SDS011;11967;50.852;4.400;2024-03-07T07:15:15;96.07;;;49.60;;
23578;SDS011;11967;50.852;4.400;2024-03-07T07:17:43;93.22;;;48.28;;
23578;SDS011;11967;50.852;4.400;2024-03-07T07:20:13;95.20;;;48.78;;
23578;SDS011;11967;50.852;4.400;2024-03-07T07:22:43;100.35;;;48.08;;
23578;SDS011;11967;50.852;4.400;2024-03-07T07:25:12;93.00;;;47.58;;
23578;SDS011;11967;50.852;4.400;2024-03-07T07:27:46;92.55;;;47.85;;
23578;SDS011;11967;50.852;4.400;2024-03-07T07:30:17;89.93;;;46.10;;
23578;SDS011;11967;50.852;4.400;2024-03-07T07:32:44;100.75;;;48.10;;
23578;SDS011;11967;50.852;4.400;2024-03-07T07:35:11;92.88;;;46.90;;
23578;SDS011;11967;50.852;4.400;2024-03-07T07:37:38;98.43;;;46.72;;
23578;SDS011;11967;50.852;4.400;2024-03-07T07:40:05;95.65;;;45.80;;
23578;SDS011;11967;50.852;4.400;2024-03-07T07:42:35;95.85;;;45.30;;
23578;SDS011;11967;50.852;4.400;2024-03-07T07:45:06;98.60;;;46.92;;
23578;SDS011;11967;50.852;4.400;2024-03-07T07:47:44;93.75;;;45.85;;
23578;SDS011;11967;50.852;4.400;2024-03-07T07:50:17;95.30;;;46.72;;
23578;SDS011;11967;50.852;4.400;2024-03-07T07:52:48;92.80;;;45.30;;
23578;SDS011;11967;50.852;4.400;2024-03-07T07:55:18;95.18;;;46.65;;
23578;SDS011;11967;50.852;4.400;2024-03-07T07:57:46;86.78;;;43.25;;
23578;SDS011;11967;50.852;4.400;2024-03-07T08:00:14;92.03;;;44.10;;
23578;SDS011;11967;50.852;4.400;2024-03-07T08:02:57;91.90;;;44.63;;
23578;SDS011;11967;50.852;4.400;2024-03-07T08:05:29;89.15;;;42.88;;
23578;SDS011;11967;50.852;4.400;2024-03-07T08:07:57;90.47;;;43.42;;
23578;SDS011;11967;50.852;4.400;2024-03-07T08:10:24;90.88;;;44.03;;
23578;SDS011;11967;50.852;4.400;2024-03-07T08:12:54;94.88;;;45.22;;
23578;SDS011;11967;50.852;4.400;2024-03-07T08:15:21;93.97;;;42.92;;
23578;SDS011;11967;50.852;4.400;2024-03-07T08:17:47;98.00;;;45.30;;
23578;SDS011;11967;50.852;4.400;2024-03-07T08:20:14;92.43;;;44.05;;
23578;SDS011;11967;50.852;4.400;2024-03-07T08:22:48;101.32;;;45.88;;
23578;SDS011;11967;50.852;4.400;2024-03-07T08:25:18;94.32;;;43.22;;
23578;SDS011;11967;50.852;4.400;2024-03-07T08:27:46;93.65;;;44.10;;
23578;SDS011;11967;50.852;4.400;2024-03-07T08:30:14;102.88;;;46.53;;
23578;SDS011;11967;50.852;4.400;2024-03-07T08:32:40;95.07;;;44.70;;
23578;SDS011;11967;50.852;4.400;2024-03-07T08:35:13;98.93;;;44.50;;
23578;SDS011;11967;50.852;4.400;2024-03-07T08:37:41;100.53;;;45.50;;
23578;SDS011;11967;50.852;4.400;2024-03-07T08:40:09;93.63;;;43.55;;
23578;SDS011;11967;50.852;4.400;2024-03-07T08:42:39;96.20;;;45.78;;
23578;SDS011;11967;50.852;4.400;2024-03-07T08:45:07;94.47;;;43.90;;
23578;SDS011;11967;50.852;4.400;2024-03-07T08:47:35;97.97;;;44.22;;
23578;SDS011;11967;50.852;4.400;2024-03-07T08:50:02;88.97;;;43.45;;
23578;SDS011;11967;50.852;4.400;2024-03-07T08:52:33;90.32;;;43.65;;
23578;SDS011;11967;50.852;4.400;2024-03-07T08:55:04;89.82;;;43.95;;
23578;SDS011;11967;50.852;4.400;2024-03-07T08:57:46;91.95;;;43.58;;
23578;SDS011;11967;50.852;4.400;2024-03-07T09:00:15;85.03;;;43.78;;
23578;SDS011;11967;50.852;4.400;2024-03-07T09:02:49;86.20;;;42.80;;
23578;SDS011;11967;50.852;4.400;2024-03-07T09:05:17;82.80;;;40.75;;
23578;SDS011;11967;50.852;4.400;2024-03-07T09:07:43;93.10;;;45.33;;
23578;SDS011;11967;50.852;4.400;2024-03-07T09:10:11;88.40;;;42.33;;
23578;SDS011;11967;50.852;4.400;2024-03-07T09:12:39;83.78;;;41.88;;
23578;SDS011;11967;50.852;4.400;2024-03-07T09:15:05;90.47;;;42.28;;
23578;SDS011;11967;50.852;4.400;2024-03-07T09:17:31;90.50;;;44.08;;
23578;SDS011;11967;50.852;4.400;2024-03-07T09:19:57;86.10;;;42.85;;
23578;SDS011;11967;50.852;4.400;2024-03-07T09:22:22;83.50;;;42.35;;
23578;SDS011;11967;50.852;4.400;2024-03-07T09:24:48;82.60;;;41.80;;
23578;SDS011;11967;50.852;4.400;2024-03-07T09:27:13;89.25;;;45.10;;
23578;SDS011;11967;50.852;4.400;2024-03-07T09:29:40;89.93;;;45.00;;
23578;SDS011;11967;50.852;4.400;2024-03-07T09:32:06;87.05;;;43.72;;
23578;SDS011;11967;50.852;4.400;2024-03-07T09:34:34;81.10;;;42.15;;
23578;SDS011;11967;50.852;4.400;2024-03-07T09:37:01;85.20;;;43.30;;
23578;SDS011;11967;50.852;4.400;2024-03-07T09:39:27;86.97;;;42.78;;
23578;SDS011;11967;50.852;4.400;2024-03-07T09:41:53;82.72;;;42.03;;
23578;SDS011;11967;50.852;4.400;2024-03-07T09:44:20;82.50;;;42.90;;
23578;SDS011;11967;50.852;4.400;2024-03-07T09:46:49;81.82;;;42.92;;
23578;SDS011;11967;50.852;4.400;2024-03-07T09:49:17;85.03;;;43.10;;
23578;SDS011;11967;50.852;4.400;2024-03-07T09:51:44;84.03;;;43.20;;
23578;SDS011;11967;50.852;4.400;2024-03-07T09:54:11;84.65;;;42.47;;
23578;SDS011;11967;50.852;4.400;2024-03-07T09:56:38;80.53;;;43.17;;
23578;SDS011;11967;50.852;4.400;2024-03-07T09:59:06;81.70;;;42.72;;
23578;SDS011;11967;50.852;4.400;2024-03-07T10:01:38;81.82;;;40.45;;
23578;SDS011;11967;50.852;4.400;2024-03-07T10:04:07;76.13;;;39.88;;
23578;SDS011;11967;50.852;4.400;2024-03-07T10:06:43;80.80;;;41.22;;
23578;SDS011;11967;50.852;4.400;2024-03-07T10:09:11;84.15;;;43.15;;
23578;SDS011;11967;50.852;4.400;2024-03-07T10:11:39;81.88;;;42.60;;
23578;SDS011;11967;50.852;4.400;2024-03-07T10:14:09;80.30;;;42.72;;
23578;SDS011;11967;50.852;4.400;2024-03-07T10:16:35;85.25;;;43.38;;
23578;SDS011;11967;50.852;4.400;2024-03-07T10:19:04;79.13;;;42.45;;
23578;SDS011;11967;50.852;4.400;2024-03-07T10:21:30;79.55;;;42.85;;
23578;SDS011;11967;50.852;4.400;2024-03-07T10:24:06;76.20;;;41.90;;
23578;SDS011;11967;50.852;4.400;2024-03-07T10:26:36;82.13;;;44.03;;
23578;SDS011;11967;50.852;4.400;2024-03-07T10:29:06;77.60;;;41.40;;
23578;SDS011;11967;50.852;4.400;2024-03-07T10:31:35;74.07;;;40.55;;
23578;SDS011;11967;50.852;4.400;2024-03-07T10:34:04;76.15;;;42.35;;
23578;SDS011;11967;50.852;4.400;2024-03-07T10:36:32;69.60;;;40.78;;
23578;SDS011;11967;50.852;4.400;2024-03-07T10:38:58;80.13;;;41.63;;
23578;SDS011;11967;50.852;4.400;2024-03-07T10:41:42;73.72;;;42.35;;
23578;SDS011;11967;50.852;4.400;2024-03-07T10:44:18;79.10;;;42.83;;
23578;SDS011;11967;50.852;4.400;2024-03-07T10:46:54;75.30;;;41.25;;
23578;SDS011;11967;50.852;4.400;2024-03-07T10:49:24;75.75;;;41.42;;
23578;SDS011;11967;50.852;4.400;2024-03-07T10:52:06;73.50;;;40.92;;
23578;SDS011;11967;50.852;4.400;2024-03-07T10:54:55;69.90;;;39.45;;
23578;SDS011;11967;50.852;4.400;2024-03-07T10:57:35;68.50;;;39.47;;
23578;SDS011;11967;50.852;4.400;2024-03-07T11:00:09;66.82;;;38.40;;
23578;SDS011;11967;50.852;4.400;2024-03-07T11:02:56;65.70;;;37.65;;
23578;SDS011;11967;50.852;4.400;2024-03-07T11:05:26;66.05;;;38.58;;
23578;SDS011;11967;50.852;4.400;2024-03-07T11:07:58;66.50;;;39.67;;
23578;SDS011;11967;50.852;4.400;2024-03-07T11:12:57;63.38;;;38.35;;
23578;SDS011;11967;50.852;4.400;2024-03-07T11:15:24;67.00;;;38.42;;
23578;SDS011;11967;50.852;4.400;2024-03-07T11:17:52;65.53;;;38.67;;
23578;SDS011;11967;50.852;4.400;2024-03-07T11:22:48;61.50;;;36.10;;
23578;SDS011;11967;50.852;4.400;2024-03-07T11:25:16;61.50;;;36.30;;
23578;SDS011;11967;50.852;4.400;2024-03-07T11:27:50;61.35;;;35.58;;
23578;SDS011;11967;50.852;4.400;2024-03-07T11:30:21;57.55;;;33.90;;
23578;SDS011;11967;50.852;4.400;2024-03-07T11:32:47;54.03;;;33.50;;
23578;SDS011;11967;50.852;4.400;2024-03-07T11:35:20;60.72;;;34.55;;
23578;SDS011;11967;50.852;4.400;2024-03-07T11:37:58;55.65;;;33.78;;
23578;SDS011;11967;50.852;4.400;2024-03-07T11:42:54;52.70;;;31.52;;
23578;SDS011;11967;50.852;4.400;2024-03-07T11:45:29;54.10;;;32.17;;
23578;SDS011;11967;50.852;4.400;2024-03-07T11:47:59;51.60;;;31.13;;
23578;SDS011;11967;50.852;4.400;2024-03-07T11:50:37;52.25;;;31.58;;
23578;SDS011;11967;50.852;4.400;2024-03-07T11:53:05;52.58;;;30.77;;
23578;SDS011;11967;50.852;4.400;2024-03-07T11:55:33;48.15;;;29.88;;
23578;SDS011;11967;50.852;4.400;2024-03-07T11:58:10;45.92;;;29.20;;
23578;SDS011;11967;50.852;4.400;2024-03-07T12:00:43;43.75;;;26.95;;
23578;SDS011;11967;50.852;4.400;2024-03-07T12:03:14;42.42;;;26.48;;
23578;SDS011;11967;50.852;4.400;2024-03-07T12:05:50;44.47;;;28.13;;
23578;SDS011;11967;50.852;4.400;2024-03-07T12:08:18;43.97;;;28.25;;
23578;SDS011;11967;50.852;4.400;2024-03-07T12:10:47;42.85;;;27.58;;
23578;SDS011;11967;50.852;4.400;2024-03-07T12:13:17;43.83;;;27.65;;
23578;SDS011;11967;50.852;4.400;2024-03-07T12:15:44;47.38;;;27.73;;
23578;SDS011;11967;50.852;4.400;2024-03-07T12:18:10;42.83;;;26.77;;
23578;SDS011;11967;50.852;4.400;2024-03-07T12:20:41;47.08;;;28.20;;
23578;SDS011;11967;50.852;4.400;2024-03-07T12:23:11;49.08;;;28.23;;
23578;SDS011;11967;50.852;4.400;2024-03-07T12:25:38;44.53;;;27.35;;
23578;SDS011;11967;50.852;4.400;2024-03-07T12:30:35;46.05;;;29.85;;
23578;SDS011;11967;50.852;4.400;2024-03-07T12:33:03;44.70;;;29.48;;
23578;SDS011;11967;50.852;4.400;2024-03-07T12:35:35;43.80;;;28.07;;
23578;SDS011;11967;50.852;4.400;2024-03-07T12:38:02;41.38;;;27.38;;
23578;SDS011;11967;50.852;4.400;2024-03-07T12:40:28;47.17;;;28.38;;
23578;SDS011;11967;50.852;4.400;2024-03-07T12:42:59;45.92;;;29.33;;
23578;SDS011;11967;50.852;4.400;2024-03-07T12:45:27;46.25;;;29.27;;
23578;SDS011;11967;50.852;4.400;2024-03-07T12:47:53;43.08;;;27.50;;
23578;SDS011;11967;50.852;4.400;2024-03-07T12:50:20;43.20;;;27.95;;
23578;SDS011;11967;50.852;4.400;2024-03-07T12:52:47;46.63;;;29.17;;
23578;SDS011;11967;50.852;4.400;2024-03-07T12:55:17;47.38;;;28.63;;
23578;SDS011;11967;50.852;4.400;2024-03-07T12:57:49;46.60;;;29.38;;
23578;SDS011;11967;50.852;4.400;2024-03-07T13:00:17;47.78;;;28.10;;
23578;SDS011;11967;50.852;4.400;2024-03-07T13:02:50;44.10;;;27.92;;
23578;SDS011;11967;50.852;4.400;2024-03-07T13:05:16;42.95;;;28.58;;
23578;SDS011;11967;50.852;4.400;2024-03-07T13:07:48;43.97;;;29.00;;
23578;SDS011;11967;50.852;4.400;2024-03-07T13:10:15;43.45;;;29.10;;
23578;SDS011;11967;50.852;4.400;2024-03-07T13:12:44;52.28;;;29.88;;
23578;SDS011;11967;50.852;4.400;2024-03-07T13:15:13;44.58;;;29.08;;
23578;SDS011;11967;50.852;4.400;2024-03-07T13:17:42;43.50;;;28.52;;
23578;SDS011;11967;50.852;4.400;2024-03-07T13:20:10;42.85;;;28.98;;
23578;SDS011;11967;50.852;4.400;2024-03-07T13:22:43;46.08;;;28.80;;
23578;SDS011;11967;50.852;4.400;2024-03-07T13:25:30;45.50;;;28.63;;
23578;SDS011;11967;50.852;4.400;2024-03-07T13:28:00;46.75;;;27.50;;
23578;SDS011;11967;50.852;4.400;2024-03-07T13:30:29;45.80;;;29.35;;
23578;SDS011;11967;50.852;4.400;2024-03-07T13:32:58;43.05;;;28.40;;
23578;SDS011;11967;50.852;4.400;2024-03-07T13:35:24;45.05;;;29.15;;
23578;SDS011;11967;50.852;4.400;2024-03-07T13:37:51;45.80;;;29.73;;
23578;SDS011;11967;50.852;4.400;2024-03-07T13:40:21;43.60;;;29.38;;
23578;SDS011;11967;50.852;4.400;2024-03-07T13:42:48;43.03;;;28.98;;
23578;SDS011;11967;50.852;4.400;2024-03-07T13:45:20;41.53;;;27.77;;
23578;SDS011;11967;50.852;4.400;2024-03-07T13:47:47;41.70;;;27.40;;
23578;SDS011;11967;50.852;4.400;2024-03-07T13:50:14;40.47;;;27.05;;
23578;SDS011;11967;50.852;4.400;2024-03-07T13:52:41;39.10;;;26.13;;
23578;SDS011;11967;50.852;4.400;2024-03-07T13:55:20;41.03;;;26.60;;
23578;SDS011;11967;50.852;4.400;2024-03-07T13:57:50;38.85;;;25.48;;
23578;SDS011;11967;50.852;4.400;2024-03-07T14:00:27;34.53;;;23.67;;
23578;SDS011;11967;50.852;4.400;2024-03-07T14:03:21;43.60;;;25.52;;
23578;SDS011;11967;50.852;4.400;2024-03-07T14:05:56;40.65;;;25.35;;
23578;SDS011;11967;50.852;4.400;2024-03-07T14:21:17;38.83;;;25.77;;
23578;SDS011;11967;50.852;4.400;2024-03-07T14:30:16;32.47;;;21.95;;
23578;SDS011;11967;50.852;4.400;2024-03-07T14:32:52;27.42;;;20.48;;
23578;SDS011;11967;50.852;4.400;2024-03-07T14:35:23;30.35;;;21.60;;
23578;SDS011;11967;50.852;4.400;2024-03-07T14:40:53;34.17;;;23.17;;
23578;SDS011;11967;50.852;4.400;2024-03-07T14:43:19;31.67;;;22.63;;
23578;SDS011;11967;50.852;4.400;2024-03-07T14:45:45;31.60;;;22.88;;
23578;SDS011;11967;50.852;4.400;2024-03-07T14:48:12;35.30;;;22.52;;
23578;SDS011;11967;50.852;4.400;2024-03-07T14:50:42;33.10;;;23.70;;
23578;SDS011;11967;50.852;4.400;2024-03-07T14:53:10;35.00;;;23.75;;
23578;SDS011;11967;50.852;4.400;2024-03-07T14:55:39;33.55;;;23.20;;
23578;SDS011;11967;50.852;4.400;2024-03-07T14:58:05;33.53;;;22.00;;
23578;SDS011;11967;50.852;4.400;2024-03-07T15:00:34;28.92;;;20.95;;
23578;SDS011;11967;50.852;4.400;2024-03-07T15:03:06;33.22;;;22.23;;
23578;SDS011;11967;50.852;4.400;2024-03-07T15:05:39;31.25;;;21.45;;